createdAt,value
2018-07-30T00:01:35.159Z,23.41
2018-07-30T00:04:05.236Z,23.29
2018-07-30T00:06:34.684Z,23.36
2018-07-30T00:09:05.967Z,23.10
2018-07-30T00:11:35.425Z,23.12
2018-07-30T00:14:04.863Z,23.30
2018-07-30T00:16:34.303Z,23.37
2018-07-30T00:19:03.708Z,23.13
2018-07-30T00:21:33.180Z,23.25
2018-07-30T00:24:02.822Z,23.11
2018-07-30T00:26:32.999Z,23.08
2018-07-30T00:29:02.819Z,23.25
2018-07-30T00:31:32.561Z,23.07
2018-07-30T00:34:01.945Z,23.09
2018-07-30T00:36:31.422Z,22.90
2018-07-30T00:39:01.038Z,22.95
2018-07-30T00:41:30.594Z,22.74
2018-07-30T00:44:00.019Z,22.69
2018-07-30T00:46:29.550Z,22.76
2018-07-30T00:48:58.938Z,22.65
2018-07-30T00:51:29.735Z,22.61
2018-07-30T00:54:02.351Z,22.62
2018-07-30T00:56:31.765Z,22.54
2018-07-30T00:59:04.396Z,22.52
2018-07-30T01:01:33.993Z,22.25
2018-07-30T01:04:06.735Z,22.14
2018-07-30T01:06:36.634Z,22.26
2018-07-30T01:09:08.729Z,22.09
2018-07-30T01:11:40.561Z,22.05
2018-07-30T01:14:14.217Z,22.17
2018-07-30T01:16:48.249Z,22.04
2018-07-30T01:19:17.714Z,22.00
2018-07-30T01:21:52.317Z,21.99
2018-07-30T01:24:22.034Z,22.25
2018-07-30T01:26:53.490Z,21.97
2018-07-30T01:29:24.722Z,21.96
2018-07-30T01:31:54.917Z,21.93
2018-07-30T01:34:24.697Z,22.04
2018-07-30T01:36:55.271Z,21.90
2018-07-30T01:39:27.161Z,22.13
2018-07-30T01:41:59.702Z,21.95
2018-07-30T01:44:31.284Z,21.99
2018-07-30T01:47:01.350Z,21.88
2018-07-30T01:49:32.232Z,21.95
2018-07-30T01:52:02.117Z,21.76
2018-07-30T01:54:33.613Z,21.93
2018-07-30T01:57:06.357Z,21.47
2018-07-30T01:59:36.967Z,21.63
2018-07-30T02:02:07.578Z,21.43
2018-07-30T02:04:38.656Z,21.71
2018-07-30T02:07:09.622Z,21.62
2018-07-30T02:09:43.301Z,21.51
2018-07-30T02:12:15.378Z,21.56
2018-07-30T02:14:47.643Z,21.77
2018-07-30T02:17:19.881Z,21.77
2018-07-30T02:19:51.921Z,21.82
2018-07-30T02:22:22.930Z,21.75
2018-07-30T02:24:53.280Z,21.67
2018-07-30T02:27:23.629Z,21.46
2018-07-30T02:29:54.024Z,21.75
2018-07-30T02:32:28.343Z,21.45
2018-07-30T02:35:00.927Z,21.54
2018-07-30T02:37:33.933Z,21.44
2018-07-30T02:40:06.905Z,21.34
2018-07-30T02:42:39.978Z,21.55
2018-07-30T02:45:12.506Z,21.25
2018-07-30T02:47:41.999Z,21.46
2018-07-30T02:50:13.477Z,21.34
2018-07-30T02:52:46.982Z,21.15
2018-07-30T02:55:17.106Z,21.04
2018-07-30T02:57:46.754Z,20.99
2018-07-30T03:00:33.614Z,21.01
2018-07-30T03:03:04.960Z,21.03
2018-07-30T03:05:36.187Z,20.96
2018-07-30T03:08:06.149Z,21.03
2018-07-30T03:10:36.382Z,20.90
2018-07-30T03:13:06.377Z,20.91
2018-07-30T03:15:39.791Z,20.86
2018-07-30T03:18:09.637Z,21.20
2018-07-30T03:20:40.319Z,20.62
2018-07-30T03:23:10.782Z,20.83
2018-07-30T03:25:40.656Z,20.82
2018-07-30T03:28:10.032Z,21.06
2018-07-30T03:30:40.232Z,21.17
2018-07-30T03:33:11.235Z,20.93
2018-07-30T03:35:45.828Z,21.17
2018-07-30T03:38:15.747Z,21.18
2018-07-30T03:43:30.590Z,20.88
2018-07-30T03:46:03.140Z,20.90
2018-07-30T03:48:37.082Z,21.02
2018-07-30T03:51:08.397Z,21.18
2018-07-30T03:53:41.310Z,21.10
2018-07-30T03:56:15.864Z,21.21
2018-07-30T03:58:49.438Z,21.12
2018-07-30T04:01:22.906Z,20.95
2018-07-30T04:03:53.588Z,20.84
2018-07-30T04:06:26.998Z,20.89
2018-07-30T04:09:02.162Z,20.99
2018-07-30T04:11:31.612Z,20.84
2018-07-30T04:14:01.069Z,21.00
2018-07-30T04:16:30.466Z,21.46
2018-07-30T04:18:59.878Z,21.48
2018-07-30T04:21:29.887Z,21.39
2018-07-30T04:23:59.313Z,21.22
2018-07-30T04:26:28.654Z,21.33
2018-07-30T04:28:58.068Z,20.98
2018-07-30T04:31:27.593Z,21.16
2018-07-30T04:33:58.050Z,21.35
2018-07-30T04:36:27.446Z,21.29
2018-07-30T04:38:56.778Z,21.37
2018-07-30T04:41:26.193Z,21.60
2018-07-30T04:43:55.504Z,21.53
2018-07-30T04:46:25.073Z,21.61
2018-07-30T04:48:54.612Z,22.02
2018-07-30T04:51:23.988Z,21.75
2018-07-30T04:53:53.422Z,21.66
2018-07-30T04:56:22.847Z,21.93
2018-07-30T04:58:52.557Z,21.81
2018-07-30T05:01:23.090Z,22.21
2018-07-30T05:03:52.607Z,22.43
2018-07-30T05:06:22.135Z,22.14
2018-07-30T05:08:52.371Z,22.53
2018-07-30T05:11:21.789Z,22.47
2018-07-30T05:13:51.222Z,22.58
2018-07-30T05:16:20.657Z,22.72
2018-07-30T05:18:50.019Z,22.97
2018-07-30T05:21:19.533Z,23.34
2018-07-30T05:23:48.927Z,23.11
2018-07-30T05:26:18.327Z,23.20
2018-07-30T05:28:47.673Z,23.46
2018-07-30T05:31:17.192Z,23.99
2018-07-30T05:33:46.697Z,24.15
2018-07-30T05:36:16.138Z,24.22
2018-07-30T05:38:45.583Z,24.89
2018-07-30T05:41:15.096Z,26.62
2018-07-30T05:43:44.681Z,28.41
2018-07-30T05:46:14.140Z,30.45
2018-07-30T05:48:43.518Z,30.55
2018-07-30T05:51:13.010Z,30.23
2018-07-30T05:53:42.388Z,29.90
2018-07-30T05:56:11.825Z,29.78
2018-07-30T05:58:41.654Z,30.06
2018-07-30T06:01:11.292Z,31.13
2018-07-30T06:03:40.724Z,30.95
2018-07-30T06:06:10.181Z,32.58
2018-07-30T06:08:39.560Z,32.28
2018-07-30T06:11:08.929Z,34.02
2018-07-30T06:13:38.492Z,34.96
2018-07-30T06:16:08.103Z,35.67
2018-07-30T06:18:37.512Z,37.05
2018-07-30T06:21:06.894Z,37.19
2018-07-30T06:23:36.329Z,36.58
2018-07-30T06:26:05.890Z,37.49
2018-07-30T06:28:35.466Z,38.26
2018-07-30T06:31:04.968Z,37.76
2018-07-30T06:33:34.507Z,38.68
2018-07-30T06:36:03.916Z,39.06
2018-07-30T06:38:33.379Z,40.24
2018-07-30T06:41:02.764Z,40.07
2018-07-30T06:43:32.390Z,41.56
2018-07-30T06:46:01.857Z,41.28
2018-07-30T06:48:31.367Z,39.32
2018-07-30T06:51:00.785Z,37.66
2018-07-30T06:53:30.409Z,38.00
2018-07-30T06:55:59.807Z,38.24
2018-07-30T06:58:29.245Z,38.48
2018-07-30T07:01:00.063Z,37.77
2018-07-30T07:03:29.654Z,37.72
2018-07-30T07:05:59.003Z,37.59
2018-07-30T07:08:28.389Z,38.46
2018-07-30T07:10:57.845Z,37.97
2018-07-30T07:13:27.220Z,37.77
2018-07-30T07:15:56.678Z,38.10
2018-07-30T07:18:26.000Z,38.91
2018-07-30T07:20:55.475Z,38.72
2018-07-30T07:23:24.858Z,38.33
2018-07-30T07:25:54.287Z,38.83
2018-07-30T07:28:23.921Z,38.66
2018-07-30T07:30:53.285Z,39.55
2018-07-30T07:33:22.681Z,40.26
2018-07-30T07:35:52.195Z,40.41
2018-07-30T07:38:21.851Z,40.62
2018-07-30T07:40:51.381Z,41.75
2018-07-30T07:43:20.880Z,41.32
2018-07-30T07:45:50.519Z,41.26
2018-07-30T07:48:20.083Z,42.21
2018-07-30T07:50:49.673Z,41.27
2018-07-30T07:53:19.464Z,42.12
2018-07-30T07:55:48.922Z,42.46
2018-07-30T07:58:18.506Z,42.80
2018-07-30T08:00:47.930Z,42.38
2018-07-30T08:03:17.435Z,42.34
2018-07-30T08:05:47.020Z,41.67
2018-07-30T08:08:16.543Z,40.85
2018-07-30T08:10:45.929Z,41.87
2018-07-30T08:13:15.448Z,40.55
2018-07-30T08:15:44.855Z,41.79
2018-07-30T08:18:14.586Z,41.31
2018-07-30T08:20:43.997Z,40.32
2018-07-30T08:23:14.000Z,41.30
2018-07-30T08:25:44.122Z,43.20
2018-07-30T08:28:13.683Z,42.09
2018-07-30T08:30:43.178Z,42.21
2018-07-30T08:33:12.832Z,42.08
2018-07-30T08:35:42.332Z,41.10
2018-07-30T08:38:11.744Z,41.36
2018-07-30T08:40:41.304Z,40.72
2018-07-30T08:43:11.772Z,40.42
2018-07-30T08:45:41.187Z,39.90
2018-07-30T08:48:10.773Z,38.65
2018-07-30T08:50:40.184Z,37.03
2018-07-30T08:53:09.733Z,37.83
2018-07-30T08:55:39.146Z,38.81
2018-07-30T08:58:08.630Z,38.20
2018-07-30T09:00:38.087Z,37.31
2018-07-30T09:03:07.688Z,37.83
2018-07-30T09:05:37.171Z,36.76
2018-07-30T09:08:06.823Z,38.44
2018-07-30T09:10:36.196Z,37.92
2018-07-30T09:13:05.932Z,37.40
2018-07-30T09:15:35.444Z,38.50
2018-07-30T09:18:05.118Z,38.99
2018-07-30T09:20:34.655Z,38.15
2018-07-30T09:23:04.092Z,39.43
2018-07-30T09:25:35.243Z,37.62
2018-07-30T09:28:05.171Z,36.60
2018-07-30T09:30:34.659Z,35.78
2018-07-30T09:33:04.877Z,35.85
2018-07-30T09:35:34.637Z,35.19
2018-07-30T09:38:04.149Z,34.64
2018-07-30T09:40:33.818Z,35.02
2018-07-30T09:43:03.673Z,35.08
2018-07-30T09:45:33.462Z,35.96
2018-07-30T09:48:03.178Z,37.15
2018-07-30T09:50:32.561Z,37.34
2018-07-30T09:53:02.094Z,37.31
2018-07-30T09:55:32.590Z,36.73
2018-07-30T09:58:01.996Z,36.14
2018-07-30T10:00:36.840Z,36.52
2018-07-30T10:03:06.632Z,36.79
2018-07-30T10:05:37.214Z,37.24
2018-07-30T10:08:06.578Z,36.86
2018-07-30T10:10:36.157Z,36.06
2018-07-30T10:13:05.580Z,35.99
2018-07-30T10:15:35.029Z,34.98
2018-07-30T10:18:05.864Z,35.08
2018-07-30T10:20:35.258Z,35.23
2018-07-30T10:23:04.617Z,35.28
2018-07-30T10:25:34.003Z,34.88
2018-07-30T10:28:03.500Z,35.28
2018-07-30T10:30:32.889Z,35.91
2018-07-30T10:33:02.617Z,35.41
2018-07-30T10:35:32.062Z,35.71
2018-07-30T10:38:01.520Z,36.21
2018-07-30T10:40:30.866Z,35.14
2018-07-30T10:43:00.205Z,34.65
2018-07-30T10:45:29.682Z,34.37
2018-07-30T10:47:59.090Z,34.64
2018-07-30T10:50:28.485Z,34.65
2018-07-30T10:52:57.963Z,34.96
2018-07-30T10:55:27.478Z,36.80
2018-07-30T10:57:56.966Z,37.37
2018-07-30T11:00:26.415Z,37.66
2018-07-30T11:02:55.887Z,36.23
2018-07-30T11:05:25.449Z,37.69
2018-07-30T11:07:54.860Z,38.36
2018-07-30T11:10:24.269Z,37.18
2018-07-30T11:12:53.799Z,36.60
2018-07-30T11:15:23.409Z,37.44
2018-07-30T11:17:53.076Z,37.76
2018-07-30T11:20:22.538Z,37.20
2018-07-30T11:22:52.337Z,36.85
2018-07-30T11:25:21.885Z,36.64
2018-07-30T11:27:51.391Z,35.98
2018-07-30T11:30:20.770Z,37.01
2018-07-30T11:32:50.298Z,38.36
2018-07-30T11:35:19.765Z,38.88
2018-07-30T11:37:49.334Z,37.91
2018-07-30T11:40:18.757Z,37.28
2018-07-30T11:42:48.245Z,36.99
2018-07-30T11:45:17.699Z,36.61
2018-07-30T11:47:47.220Z,35.33
2018-07-30T11:50:16.852Z,35.41
2018-07-30T11:52:46.288Z,36.07
2018-07-30T11:55:15.686Z,36.18
2018-07-30T11:57:45.176Z,36.45
2018-07-30T12:00:14.618Z,36.78
2018-07-30T12:02:44.179Z,36.65
2018-07-30T12:05:13.617Z,36.08
2018-07-30T12:07:43.044Z,34.84
2018-07-30T12:10:12.907Z,33.85
2018-07-30T12:12:42.498Z,34.73
2018-07-30T12:15:12.043Z,34.95
2018-07-30T12:17:41.372Z,36.49
2018-07-30T12:20:10.733Z,36.24
2018-07-30T12:22:40.042Z,35.52
2018-07-30T12:25:09.420Z,36.00
2018-07-30T12:27:38.814Z,36.44
2018-07-30T12:30:08.536Z,36.40
2018-07-30T12:32:37.976Z,35.09
2018-07-30T12:35:08.381Z,34.68
2018-07-30T12:37:37.700Z,34.68
2018-07-30T12:40:07.221Z,35.24
2018-07-30T12:42:37.972Z,35.00
2018-07-30T12:45:07.330Z,34.90
2018-07-30T12:47:36.677Z,35.09
2018-07-30T12:50:06.162Z,35.48
2018-07-30T12:52:35.637Z,35.85
2018-07-30T12:55:05.268Z,34.93
2018-07-30T12:57:34.701Z,34.94
2018-07-30T13:00:04.116Z,35.95
2018-07-30T13:02:33.493Z,36.72
2018-07-30T13:05:02.905Z,36.86
2018-07-30T13:07:32.314Z,36.18
2018-07-30T13:10:01.729Z,36.43
2018-07-30T13:12:31.161Z,36.08
2018-07-30T13:15:00.659Z,36.25
2018-07-30T13:17:30.069Z,36.59
2018-07-30T13:19:59.590Z,36.40
2018-07-30T13:22:29.245Z,36.96
2018-07-30T13:24:58.750Z,36.34
2018-07-30T13:27:28.633Z,35.55
2018-07-30T13:29:58.150Z,35.74
2018-07-30T13:32:27.793Z,35.50
2018-07-30T13:34:57.321Z,36.19
2018-07-30T13:37:26.765Z,36.29
2018-07-30T13:39:56.190Z,36.55
2018-07-30T13:42:25.701Z,36.20
2018-07-30T13:44:55.169Z,35.96
2018-07-30T13:47:24.697Z,36.23
2018-07-30T13:49:54.122Z,36.46
2018-07-30T13:52:23.577Z,36.88
2018-07-30T13:54:53.085Z,36.80
2018-07-30T13:57:22.544Z,37.05
2018-07-30T13:59:51.910Z,36.78
2018-07-30T14:02:21.310Z,35.18
2018-07-30T14:04:50.763Z,35.32
2018-07-30T14:07:20.320Z,35.67
2018-07-30T14:09:51.909Z,36.23
2018-07-30T14:12:21.350Z,35.86
2018-07-30T14:14:50.809Z,36.37
2018-07-30T14:17:21.321Z,36.92
2018-07-30T14:19:50.796Z,36.49
2018-07-30T14:22:20.301Z,36.50
2018-07-30T14:24:49.826Z,36.25
2018-07-30T14:27:19.250Z,36.51
2018-07-30T14:29:48.646Z,36.58
2018-07-30T14:32:18.075Z,36.41
2018-07-30T14:34:47.524Z,36.79
2018-07-30T14:39:48.737Z,37.09
2018-07-30T14:42:18.426Z,36.81
2018-07-30T14:44:47.933Z,37.36
2018-07-30T14:47:17.345Z,35.70
2018-07-30T14:49:47.813Z,35.84
2018-07-30T14:52:17.189Z,35.74
2018-07-30T14:54:47.628Z,36.32
2018-07-30T14:57:16.995Z,35.70
2018-07-30T14:59:46.385Z,35.39
2018-07-30T15:02:15.906Z,35.77
2018-07-30T15:04:45.259Z,35.86
2018-07-30T15:07:14.712Z,35.92
2018-07-30T15:09:44.080Z,36.11
2018-07-30T15:12:13.420Z,35.21
2018-07-30T15:14:42.972Z,35.85
2018-07-30T15:17:12.388Z,35.47
2018-07-30T15:19:41.744Z,36.26
2018-07-30T15:22:11.149Z,36.02
2018-07-30T15:24:40.521Z,36.19
2018-07-30T15:27:09.954Z,36.33
2018-07-30T15:29:39.460Z,35.99
2018-07-30T15:32:08.859Z,35.83
2018-07-30T15:34:38.218Z,35.54
2018-07-30T15:37:07.739Z,35.40
2018-07-30T15:39:37.288Z,35.64
2018-07-30T15:42:06.884Z,35.90
2018-07-30T15:44:36.224Z,35.53
2018-07-30T15:47:05.633Z,35.61
2018-07-30T15:49:35.066Z,35.35
2018-07-30T15:52:04.612Z,35.34
2018-07-30T15:54:34.213Z,34.90
2018-07-30T15:57:03.585Z,34.71
2018-07-30T15:59:34.040Z,34.41
2018-07-30T16:02:03.444Z,34.55
2018-07-30T16:04:32.944Z,34.85
2018-07-30T16:07:02.356Z,34.89
2018-07-30T16:09:31.883Z,34.68
2018-07-30T16:12:02.364Z,34.96
2018-07-30T16:14:31.792Z,34.55
2018-07-30T16:17:01.206Z,34.60
2018-07-30T16:19:30.621Z,34.35
2018-07-30T16:22:00.149Z,34.32
2018-07-30T16:24:29.597Z,34.48
2018-07-30T16:26:59.054Z,34.45
2018-07-30T16:29:28.416Z,34.48
2018-07-30T16:31:58.900Z,35.21
2018-07-30T16:34:28.454Z,35.06
2018-07-30T16:36:57.888Z,35.18
2018-07-30T16:39:27.289Z,34.89
2018-07-30T16:41:56.717Z,35.63
2018-07-30T16:44:26.045Z,35.32
2018-07-30T16:46:55.552Z,35.44
2018-07-30T16:49:24.974Z,35.58
2018-07-30T16:51:54.360Z,35.89
2018-07-30T16:54:23.763Z,35.60
2018-07-30T16:56:53.129Z,35.61
2018-07-30T16:59:22.606Z,35.75
2018-07-30T17:01:52.016Z,36.02
2018-07-30T17:04:21.404Z,36.07
2018-07-30T17:06:50.817Z,36.20
2018-07-30T17:09:20.193Z,36.12
2018-07-30T17:11:49.758Z,36.01
2018-07-30T17:14:19.271Z,35.83
2018-07-30T17:16:48.773Z,35.28
2018-07-30T17:19:18.220Z,35.40
2018-07-30T17:21:47.668Z,35.45
2018-07-30T17:24:17.155Z,34.86
2018-07-30T17:26:46.517Z,33.80
2018-07-30T17:29:15.917Z,34.55
2018-07-30T17:31:45.327Z,33.86
2018-07-30T17:34:14.695Z,33.70
2018-07-30T17:36:44.097Z,33.35
2018-07-30T17:39:13.664Z,33.28
2018-07-30T17:41:43.044Z,33.32
2018-07-30T17:44:12.446Z,33.59
2018-07-30T17:46:41.872Z,33.55
2018-07-30T17:49:11.279Z,33.25
2018-07-30T17:51:40.811Z,33.63
2018-07-30T17:54:10.133Z,33.86
2018-07-30T17:56:39.527Z,33.70
2018-07-30T17:59:08.853Z,33.54
2018-07-30T18:01:38.223Z,33.20
2018-07-30T18:04:07.529Z,32.70
2018-07-30T18:06:43.232Z,32.62
2018-07-30T18:09:12.588Z,32.32
2018-07-30T18:11:42.180Z,31.90
2018-07-30T18:14:11.504Z,31.85
2018-07-30T18:16:40.967Z,32.02
2018-07-30T18:19:10.510Z,32.10
2018-07-30T18:21:39.965Z,31.83
2018-07-30T18:24:09.398Z,32.01
2018-07-30T18:26:38.741Z,32.31
2018-07-30T18:29:08.093Z,32.54
2018-07-30T18:31:37.565Z,32.42
2018-07-30T18:34:06.889Z,31.99
2018-07-30T18:36:36.281Z,31.88
2018-07-30T18:39:07.019Z,31.66
2018-07-30T18:41:36.429Z,31.67
2018-07-30T18:44:05.870Z,31.82
2018-07-30T18:46:35.330Z,32.05
2018-07-30T18:49:04.632Z,32.13
2018-07-30T18:51:34.102Z,31.62
2018-07-30T18:54:03.668Z,31.46
2018-07-30T18:56:33.232Z,31.29
2018-07-30T18:59:02.578Z,30.85
2018-07-30T19:01:31.907Z,30.64
2018-07-30T19:04:01.277Z,30.91
2018-07-30T19:06:30.686Z,30.65
2018-07-30T19:09:00.046Z,30.64
2018-07-30T19:11:29.551Z,30.74
2018-07-30T19:13:58.957Z,30.47
2018-07-30T19:16:28.349Z,30.53
2018-07-30T19:18:57.753Z,29.94
2018-07-30T19:21:27.078Z,30.25
2018-07-30T19:23:56.484Z,29.92
2018-07-30T19:26:25.856Z,29.95
2018-07-30T19:28:55.267Z,29.67
2018-07-30T19:31:24.617Z,29.19
2018-07-30T19:33:54.008Z,29.18
2018-07-30T19:36:23.420Z,29.04
2018-07-30T19:38:52.948Z,29.24
2018-07-30T19:41:22.248Z,28.99
2018-07-30T19:43:51.600Z,28.84
2018-07-30T19:46:20.956Z,28.80
2018-07-30T19:48:50.289Z,28.73
2018-07-30T19:51:19.707Z,28.59
2018-07-30T19:53:49.154Z,28.57
2018-07-30T19:56:18.600Z,28.45
2018-07-30T19:58:48.071Z,28.35
2018-07-30T20:01:17.287Z,28.44
2018-07-30T20:03:46.685Z,28.15
2018-07-30T20:06:16.026Z,28.03
2018-07-30T20:08:45.526Z,28.06
2018-07-30T20:11:14.900Z,27.94
2018-07-30T20:13:44.166Z,27.95
2018-07-30T20:16:13.566Z,28.12
2018-07-30T20:18:43.518Z,28.05
2018-07-30T20:21:13.114Z,27.92
2018-07-30T20:23:42.672Z,27.75
2018-07-30T20:26:12.122Z,27.74
2018-07-30T20:28:41.580Z,27.54
2018-07-30T20:31:10.967Z,27.59
2018-07-30T20:33:40.421Z,27.50
2018-07-30T20:36:09.761Z,27.33
2018-07-30T20:38:39.078Z,27.30
2018-07-30T20:41:08.789Z,27.15
2018-07-30T20:43:38.131Z,26.88
2018-07-30T20:46:07.722Z,26.77
2018-07-30T20:48:37.134Z,26.69
2018-07-30T20:51:06.413Z,26.67
2018-07-30T20:53:35.790Z,26.56
2018-07-30T20:56:05.065Z,26.42
2018-07-30T20:58:34.440Z,26.51
2018-07-30T21:01:03.845Z,26.54
2018-07-30T21:03:33.148Z,26.34
2018-07-30T21:06:02.443Z,26.78
2018-07-30T21:08:31.809Z,26.61
2018-07-30T21:11:01.194Z,26.47
2018-07-30T21:13:30.483Z,26.76
2018-07-30T21:15:59.779Z,26.52
2018-07-30T21:18:29.101Z,26.39
2018-07-30T21:20:58.441Z,26.28
2018-07-30T21:23:27.814Z,26.32
2018-07-30T21:25:57.168Z,26.13
2018-07-30T21:28:26.531Z,26.06
2018-07-30T21:30:55.885Z,25.93
2018-07-30T21:33:25.222Z,25.96
2018-07-30T21:35:54.516Z,25.98
2018-07-30T21:38:23.841Z,26.01
2018-07-30T21:40:53.276Z,25.94
2018-07-30T21:43:22.531Z,25.80
2018-07-30T21:45:51.820Z,25.60
2018-07-30T21:48:21.143Z,25.73
2018-07-30T21:50:50.478Z,25.76
2018-07-30T21:53:19.827Z,25.66
2018-07-30T21:55:49.147Z,25.39
2018-07-30T21:58:18.479Z,25.46
2018-07-30T22:00:53.091Z,25.10
2018-07-30T22:03:22.515Z,24.91
2018-07-30T22:05:58.917Z,24.92
2018-07-30T22:08:28.664Z,25.00
2018-07-30T22:10:58.138Z,25.41
2018-07-30T22:13:27.560Z,25.22
2018-07-30T22:15:56.877Z,25.11
2018-07-30T22:18:26.324Z,25.24
2018-07-30T22:20:56.109Z,25.49
2018-07-30T22:23:25.508Z,25.23
2018-07-30T22:25:54.913Z,25.10
2018-07-30T22:28:24.222Z,25.19
2018-07-30T22:30:53.623Z,25.24
2018-07-30T22:33:23.091Z,24.89
2018-07-30T22:35:52.561Z,25.13
2018-07-30T22:38:21.910Z,25.07
2018-07-30T22:40:51.211Z,25.00
2018-07-30T22:43:20.558Z,24.78
2018-07-30T22:45:49.900Z,24.76
2018-07-30T22:48:19.264Z,24.76
2018-07-30T22:50:48.526Z,24.60
2018-07-30T22:53:17.836Z,24.37
2018-07-30T22:55:47.224Z,24.55
2018-07-30T22:58:16.556Z,24.40
2018-07-30T23:00:45.957Z,24.49
2018-07-30T23:03:15.275Z,24.42
2018-07-30T23:05:44.613Z,24.40
2018-07-30T23:08:13.997Z,24.47
2018-07-30T23:10:43.309Z,24.33
2018-07-30T23:13:12.596Z,24.34
2018-07-30T23:15:41.888Z,24.21
2018-07-30T23:18:11.225Z,24.37
2018-07-30T23:20:40.527Z,24.51
2018-07-30T23:23:09.845Z,24.37
2018-07-30T23:25:39.107Z,24.44
2018-07-30T23:28:08.378Z,24.35
2018-07-30T23:30:37.667Z,24.26
2018-07-30T23:33:07.020Z,24.22
2018-07-30T23:35:36.377Z,24.17
2018-07-30T23:38:05.721Z,24.03
2018-07-30T23:40:34.993Z,24.18
2018-07-30T23:43:04.309Z,24.20
2018-07-30T23:45:33.576Z,24.05
2018-07-30T23:48:02.924Z,24.14
2018-07-30T23:50:32.231Z,24.06
2018-07-30T23:53:01.552Z,23.85
2018-07-30T23:55:30.809Z,23.75
2018-07-30T23:58:00.093Z,23.81
